sensor_id;sensor_type;location;lat;lon;timestamp;P1;durP1;ratioP1;P2;durP2;ratioP2
3274;SDS011;1649;53.672;10.064;2023-01-31T00:02:25;14.43;;;2.50;;
3274;SDS011;1649;53.672;10.064;2023-01-31T00:04:50;14.03;;;2.90;;
3274;SDS011;1649;53.672;10.064;2023-01-31T00:07:16;12.40;;;2.60;;
3274;SDS011;1649;53.672;10.064;2023-01-31T00:09:41;16.17;;;3.37;;
3274;SDS011;1649;53.672;10.064;2023-01-31T00:12:07;10.37;;;2.87;;
3274;SDS011;1649;53.672;10.064;2023-01-31T00:14:32;12.50;;;3.00;;
3274;SDS011;1649;53.672;10.064;2023-01-31T00:16:58;13.97;;;2.70;;
3274;SDS011;1649;53.672;10.064;2023-01-31T00:19:23;10.40;;;2.87;;
3274;SDS011;1649;53.672;10.064;2023-01-31T00:21:49;21.87;;;3.03;;
3274;SDS011;1649;53.672;10.064;2023-01-31T00:24:14;14.13;;;2.03;;
3274;SDS011;1649;53.672;10.064;2023-01-31T00:26:40;12.83;;;2.60;;
3274;SDS011;1649;53.672;10.064;2023-01-31T00:29:05;8.90;;;2.60;;
3274;SDS011;1649;53.672;10.064;2023-01-31T00:31:31;13.63;;;2.73;;
3274;SDS011;1649;53.672;10.064;2023-01-31T00:33:58;12.50;;;2.50;;
3274;SDS011;1649;53.672;10.064;2023-01-31T00:36:26;14.20;;;2.63;;
3274;SDS011;1649;53.672;10.064;2023-01-31T00:38:55;19.77;;;2.83;;
3274;SDS011;1649;53.672;10.064;2023-01-31T00:41:22;11.10;;;2.70;;
3274;SDS011;1649;53.672;10.064;2023-01-31T00:43:48;13.33;;;2.40;;
3274;SDS011;1649;53.672;10.064;2023-01-31T00:46:14;17.33;;;2.80;;
3274;SDS011;1649;53.672;10.064;2023-01-31T00:48:40;7.90;;;1.63;;
3274;SDS011;1649;53.672;10.064;2023-01-31T00:51:06;16.50;;;2.33;;
3274;SDS011;1649;53.672;10.064;2023-01-31T00:53:32;12.10;;;2.27;;
3274;SDS011;1649;53.672;10.064;2023-01-31T00:56:05;12.83;;;2.50;;
3274;SDS011;1649;53.672;10.064;2023-01-31T00:58:32;10.43;;;2.10;;
3274;SDS011;1649;53.672;10.064;2023-01-31T01:01:09;12.40;;;2.50;;
3274;SDS011;1649;53.672;10.064;2023-01-31T01:03:40;10.40;;;2.03;;
3274;SDS011;1649;53.672;10.064;2023-01-31T01:06:07;11.03;;;1.97;;
3274;SDS011;1649;53.672;10.064;2023-01-31T01:08:33;12.60;;;3.00;;
3274;SDS011;1649;53.672;10.064;2023-01-31T01:11:07;6.50;;;1.87;;
3274;SDS011;1649;53.672;10.064;2023-01-31T01:13:46;10.63;;;2.70;;
3274;SDS011;1649;53.672;10.064;2023-01-31T01:16:17;19.53;;;2.50;;
3274;SDS011;1649;53.672;10.064;2023-01-31T01:18:45;9.63;;;2.03;;
3274;SDS011;1649;53.672;10.064;2023-01-31T01:21:14;9.10;;;2.03;;
3274;SDS011;1649;53.672;10.064;2023-01-31T01:23:41;8.90;;;2.30;;
3274;SDS011;1649;53.672;10.064;2023-01-31T01:26:21;10.70;;;1.93;;
3274;SDS011;1649;53.672;10.064;2023-01-31T01:28:49;15.57;;;2.43;;
3274;SDS011;1649;53.672;10.064;2023-01-31T01:31:15;10.57;;;2.60;;
3274;SDS011;1649;53.672;10.064;2023-01-31T01:33:42;11.20;;;1.73;;
3274;SDS011;1649;53.672;10.064;2023-01-31T01:36:09;21.00;;;2.33;;
3274;SDS011;1649;53.672;10.064;2023-01-31T01:38:37;11.13;;;2.27;;
3274;SDS011;1649;53.672;10.064;2023-01-31T01:41:04;14.83;;;2.43;;
3274;SDS011;1649;53.672;10.064;2023-01-31T01:43:40;9.70;;;2.50;;
3274;SDS011;1649;53.672;10.064;2023-01-31T01:46:08;9.10;;;2.37;;
3274;SDS011;1649;53.672;10.064;2023-01-31T01:48:38;6.07;;;1.90;;
3274;SDS011;1649;53.672;10.064;2023-01-31T01:51:05;16.20;;;3.17;;
3274;SDS011;1649;53.672;10.064;2023-01-31T01:53:31;9.27;;;2.50;;
3274;SDS011;1649;53.672;10.064;2023-01-31T01:56:04;15.40;;;2.30;;
3274;SDS011;1649;53.672;10.064;2023-01-31T02:01:21;13.27;;;2.50;;
3274;SDS011;1649;53.672;10.064;2023-01-31T02:03:48;11.30;;;2.30;;
3274;SDS011;1649;53.672;10.064;2023-01-31T02:06:15;13.30;;;2.30;;
3274;SDS011;1649;53.672;10.064;2023-01-31T02:08:41;12.13;;;2.00;;
3274;SDS011;1649;53.672;10.064;2023-01-31T02:14:29;13.73;;;2.77;;
3274;SDS011;1649;53.672;10.064;2023-01-31T02:16:55;15.80;;;2.93;;
3274;SDS011;1649;53.672;10.064;2023-01-31T02:19:23;13.07;;;2.70;;
3274;SDS011;1649;53.672;10.064;2023-01-31T02:22:03;12.73;;;2.87;;
3274;SDS011;1649;53.672;10.064;2023-01-31T02:24:51;11.10;;;2.67;;
3274;SDS011;1649;53.672;10.064;2023-01-31T02:27:37;13.03;;;3.17;;
3274;SDS011;1649;53.672;10.064;2023-01-31T02:30:46;12.43;;;3.17;;
3274;SDS011;1649;53.672;10.064;2023-01-31T02:36:32;17.53;;;1.97;;
3274;SDS011;1649;53.672;10.064;2023-01-31T02:39:19;12.17;;;2.87;;
3274;SDS011;1649;53.672;10.064;2023-01-31T02:42:04;20.73;;;2.83;;
3274;SDS011;1649;53.672;10.064;2023-01-31T02:44:56;14.83;;;3.20;;
3274;SDS011;1649;53.672;10.064;2023-01-31T02:47:45;15.20;;;3.30;;
3274;SDS011;1649;53.672;10.064;2023-01-31T02:50:20;15.53;;;2.77;;
3274;SDS011;1649;53.672;10.064;2023-01-31T02:55:34;14.87;;;3.10;;
3274;SDS011;1649;53.672;10.064;2023-01-31T02:58:21;10.37;;;3.30;;
3274;SDS011;1649;53.672;10.064;2023-01-31T03:00:54;12.10;;;2.60;;
3274;SDS011;1649;53.672;10.064;2023-01-31T03:03:24;16.13;;;3.13;;
3274;SDS011;1649;53.672;10.064;2023-01-31T03:09:08;13.50;;;2.63;;
3274;SDS011;1649;53.672;10.064;2023-01-31T03:14:31;13.33;;;2.33;;
3274;SDS011;1649;53.672;10.064;2023-01-31T03:20:07;17.70;;;3.57;;
3274;SDS011;1649;53.672;10.064;2023-01-31T03:22:35;10.37;;;1.97;;
3274;SDS011;1649;53.672;10.064;2023-01-31T03:25:08;9.93;;;2.47;;
3274;SDS011;1649;53.672;10.064;2023-01-31T03:27:36;8.40;;;1.87;;
3274;SDS011;1649;53.672;10.064;2023-01-31T03:30:07;6.90;;;2.50;;
3274;SDS011;1649;53.672;10.064;2023-01-31T03:32:40;10.87;;;2.23;;
3274;SDS011;1649;53.672;10.064;2023-01-31T03:35:12;12.00;;;2.17;;
3274;SDS011;1649;53.672;10.064;2023-01-31T03:37:40;14.80;;;2.53;;
3274;SDS011;1649;53.672;10.064;2023-01-31T03:40:18;9.50;;;2.03;;
3274;SDS011;1649;53.672;10.064;2023-01-31T03:43:11;10.13;;;1.70;;
3274;SDS011;1649;53.672;10.064;2023-01-31T03:46:14;15.73;;;2.60;;
3274;SDS011;1649;53.672;10.064;2023-01-31T03:48:45;13.13;;;2.47;;
3274;SDS011;1649;53.672;10.064;2023-01-31T03:51:17;13.43;;;2.20;;
3274;SDS011;1649;53.672;10.064;2023-01-31T03:53:55;10.90;;;1.53;;
3274;SDS011;1649;53.672;10.064;2023-01-31T03:59:09;12.00;;;2.10;;
3274;SDS011;1649;53.672;10.064;2023-01-31T04:01:40;11.60;;;1.97;;
3274;SDS011;1649;53.672;10.064;2023-01-31T04:04:10;8.67;;;2.27;;
3274;SDS011;1649;53.672;10.064;2023-01-31T04:06:40;21.37;;;2.90;;
3274;SDS011;1649;53.672;10.064;2023-01-31T04:09:06;14.43;;;2.97;;
3274;SDS011;1649;53.672;10.064;2023-01-31T04:11:35;13.07;;;2.57;;
3274;SDS011;1649;53.672;10.064;2023-01-31T04:14:02;16.03;;;3.27;;
3274;SDS011;1649;53.672;10.064;2023-01-31T04:16:28;16.17;;;3.20;;
3274;SDS011;1649;53.672;10.064;2023-01-31T04:18:53;9.93;;;2.67;;
3274;SDS011;1649;53.672;10.064;2023-01-31T04:21:20;13.47;;;3.03;;
3274;SDS011;1649;53.672;10.064;2023-01-31T04:23:46;14.87;;;3.00;;
3274;SDS011;1649;53.672;10.064;2023-01-31T04:26:11;9.20;;;2.37;;
3274;SDS011;1649;53.672;10.064;2023-01-31T04:28:37;12.13;;;2.63;;
3274;SDS011;1649;53.672;10.064;2023-01-31T04:31:03;10.67;;;2.90;;
3274;SDS011;1649;53.672;10.064;2023-01-31T04:33:28;19.53;;;3.17;;
3274;SDS011;1649;53.672;10.064;2023-01-31T04:35:54;15.37;;;2.97;;
3274;SDS011;1649;53.672;10.064;2023-01-31T04:38:19;14.93;;;3.47;;
3274;SDS011;1649;53.672;10.064;2023-01-31T04:40:45;16.60;;;3.50;;
3274;SDS011;1649;53.672;10.064;2023-01-31T04:43:10;16.13;;;3.60;;
3274;SDS011;1649;53.672;10.064;2023-01-31T04:45:36;17.50;;;3.00;;
3274;SDS011;1649;53.672;10.064;2023-01-31T04:48:01;13.40;;;2.70;;
3274;SDS011;1649;53.672;10.064;2023-01-31T04:50:28;15.13;;;2.90;;
3274;SDS011;1649;53.672;10.064;2023-01-31T04:52:53;15.57;;;3.20;;
3274;SDS011;1649;53.672;10.064;2023-01-31T04:55:20;21.53;;;2.93;;
3274;SDS011;1649;53.672;10.064;2023-01-31T04:57:45;10.97;;;3.20;;
3274;SDS011;1649;53.672;10.064;2023-01-31T05:00:11;18.50;;;3.57;;
3274;SDS011;1649;53.672;10.064;2023-01-31T05:02:37;14.00;;;3.30;;
3274;SDS011;1649;53.672;10.064;2023-01-31T05:05:03;11.47;;;3.50;;
3274;SDS011;1649;53.672;10.064;2023-01-31T05:07:29;15.30;;;3.37;;
3274;SDS011;1649;53.672;10.064;2023-01-31T05:09:55;12.83;;;3.93;;
3274;SDS011;1649;53.672;10.064;2023-01-31T05:12:20;14.10;;;3.60;;
3274;SDS011;1649;53.672;10.064;2023-01-31T05:14:46;15.80;;;3.70;;
3274;SDS011;1649;53.672;10.064;2023-01-31T05:17:11;14.40;;;3.20;;
3274;SDS011;1649;53.672;10.064;2023-01-31T05:19:37;9.37;;;2.80;;
3274;SDS011;1649;53.672;10.064;2023-01-31T05:22:02;15.13;;;3.03;;
3274;SDS011;1649;53.672;10.064;2023-01-31T05:24:29;19.63;;;2.77;;
3274;SDS011;1649;53.672;10.064;2023-01-31T05:26:56;10.23;;;2.70;;
3274;SDS011;1649;53.672;10.064;2023-01-31T05:29:23;13.17;;;2.93;;
3274;SDS011;1649;53.672;10.064;2023-01-31T05:31:50;11.87;;;2.73;;
3274;SDS011;1649;53.672;10.064;2023-01-31T05:34:20;15.97;;;2.70;;
3274;SDS011;1649;53.672;10.064;2023-01-31T05:36:49;12.90;;;3.23;;
3274;SDS011;1649;53.672;10.064;2023-01-31T05:39:14;13.77;;;3.17;;
3274;SDS011;1649;53.672;10.064;2023-01-31T05:41:40;14.10;;;3.27;;
3274;SDS011;1649;53.672;10.064;2023-01-31T05:44:06;14.00;;;2.70;;
3274;SDS011;1649;53.672;10.064;2023-01-31T05:46:31;18.33;;;3.20;;
3274;SDS011;1649;53.672;10.064;2023-01-31T05:48:57;18.50;;;3.27;;
3274;SDS011;1649;53.672;10.064;2023-01-31T05:51:22;18.30;;;2.83;;
3274;SDS011;1649;53.672;10.064;2023-01-31T05:53:48;12.37;;;2.50;;
3274;SDS011;1649;53.672;10.064;2023-01-31T05:56:13;14.80;;;2.43;;
3274;SDS011;1649;53.672;10.064;2023-01-31T05:58:40;16.67;;;3.50;;
3274;SDS011;1649;53.672;10.064;2023-01-31T06:01:06;12.80;;;3.00;;
3274;SDS011;1649;53.672;10.064;2023-01-31T06:03:31;16.23;;;2.30;;
3274;SDS011;1649;53.672;10.064;2023-01-31T06:05:57;7.60;;;2.10;;
3274;SDS011;1649;53.672;10.064;2023-01-31T06:08:23;11.40;;;3.90;;
3274;SDS011;1649;53.672;10.064;2023-01-31T06:10:48;17.73;;;2.47;;
3274;SDS011;1649;53.672;10.064;2023-01-31T06:13:14;22.17;;;3.17;;
3274;SDS011;1649;53.672;10.064;2023-01-31T06:15:42;28.37;;;4.20;;
3274;SDS011;1649;53.672;10.064;2023-01-31T06:18:08;18.03;;;3.57;;
3274;SDS011;1649;53.672;10.064;2023-01-31T06:20:34;16.10;;;3.07;;
3274;SDS011;1649;53.672;10.064;2023-01-31T06:23:00;16.80;;;3.30;;
3274;SDS011;1649;53.672;10.064;2023-01-31T06:25:25;15.37;;;2.70;;
3274;SDS011;1649;53.672;10.064;2023-01-31T06:27:51;16.80;;;3.30;;
3274;SDS011;1649;53.672;10.064;2023-01-31T06:30:17;21.27;;;3.47;;
3274;SDS011;1649;53.672;10.064;2023-01-31T06:32:42;13.77;;;2.83;;
3274;SDS011;1649;53.672;10.064;2023-01-31T06:35:08;17.60;;;3.37;;
3274;SDS011;1649;53.672;10.064;2023-01-31T06:37:33;12.20;;;2.73;;
3274;SDS011;1649;53.672;10.064;2023-01-31T06:39:59;20.13;;;3.17;;
3274;SDS011;1649;53.672;10.064;2023-01-31T06:42:25;10.30;;;2.80;;
3274;SDS011;1649;53.672;10.064;2023-01-31T06:44:50;17.30;;;3.67;;
3274;SDS011;1649;53.672;10.064;2023-01-31T06:47:15;22.70;;;3.40;;
3274;SDS011;1649;53.672;10.064;2023-01-31T06:49:41;19.97;;;4.23;;
3274;SDS011;1649;53.672;10.064;2023-01-31T06:52:07;16.33;;;3.47;;
3274;SDS011;1649;53.672;10.064;2023-01-31T06:54:32;12.93;;;3.07;;
3274;SDS011;1649;53.672;10.064;2023-01-31T06:56:58;24.10;;;3.57;;
3274;SDS011;1649;53.672;10.064;2023-01-31T06:59:23;26.40;;;3.40;;
3274;SDS011;1649;53.672;10.064;2023-01-31T07:01:49;25.00;;;3.93;;
3274;SDS011;1649;53.672;10.064;2023-01-31T07:04:14;19.67;;;3.80;;
3274;SDS011;1649;53.672;10.064;2023-01-31T07:06:40;13.03;;;3.23;;
3274;SDS011;1649;53.672;10.064;2023-01-31T07:09:05;20.90;;;4.00;;
3274;SDS011;1649;53.672;10.064;2023-01-31T07:11:31;14.13;;;3.10;;
3274;SDS011;1649;53.672;10.064;2023-01-31T07:13:57;14.80;;;3.23;;
3274;SDS011;1649;53.672;10.064;2023-01-31T07:16:22;16.87;;;3.80;;
3274;SDS011;1649;53.672;10.064;2023-01-31T07:18:52;17.77;;;3.30;;
3274;SDS011;1649;53.672;10.064;2023-01-31T07:21:20;19.43;;;3.63;;
3274;SDS011;1649;53.672;10.064;2023-01-31T07:23:46;19.63;;;4.30;;
3274;SDS011;1649;53.672;10.064;2023-01-31T07:26:11;15.13;;;4.07;;
3274;SDS011;1649;53.672;10.064;2023-01-31T07:28:37;17.67;;;3.63;;
3274;SDS011;1649;53.672;10.064;2023-01-31T07:31:06;12.67;;;2.40;;
3274;SDS011;1649;53.672;10.064;2023-01-31T07:33:35;13.30;;;3.23;;
3274;SDS011;1649;53.672;10.064;2023-01-31T07:36:02;22.43;;;4.77;;
3274;SDS011;1649;53.672;10.064;2023-01-31T07:38:28;13.80;;;3.27;;
3274;SDS011;1649;53.672;10.064;2023-01-31T07:41:01;15.50;;;4.50;;
3274;SDS011;1649;53.672;10.064;2023-01-31T07:43:28;15.63;;;4.50;;
3274;SDS011;1649;53.672;10.064;2023-01-31T07:45:54;21.17;;;5.70;;
3274;SDS011;1649;53.672;10.064;2023-01-31T07:48:20;10.13;;;2.80;;
3274;SDS011;1649;53.672;10.064;2023-01-31T07:50:52;25.80;;;5.10;;
3274;SDS011;1649;53.672;10.064;2023-01-31T07:53:22;20.33;;;5.50;;
3274;SDS011;1649;53.672;10.064;2023-01-31T07:55:48;24.70;;;5.40;;
3274;SDS011;1649;53.672;10.064;2023-01-31T07:58:14;18.53;;;5.90;;
3274;SDS011;1649;53.672;10.064;2023-01-31T08:00:40;30.70;;;6.57;;
3274;SDS011;1649;53.672;10.064;2023-01-31T08:03:26;25.50;;;6.97;;
3274;SDS011;1649;53.672;10.064;2023-01-31T08:08:25;20.33;;;6.37;;
3274;SDS011;1649;53.672;10.064;2023-01-31T08:10:51;21.00;;;7.03;;
3274;SDS011;1649;53.672;10.064;2023-01-31T08:13:16;24.47;;;7.23;;
3274;SDS011;1649;53.672;10.064;2023-01-31T08:15:42;22.80;;;6.57;;
3274;SDS011;1649;53.672;10.064;2023-01-31T08:18:07;21.50;;;7.03;;
3274;SDS011;1649;53.672;10.064;2023-01-31T08:20:33;25.43;;;7.60;;
3274;SDS011;1649;53.672;10.064;2023-01-31T08:23:01;25.00;;;6.60;;
3274;SDS011;1649;53.672;10.064;2023-01-31T08:25:27;20.53;;;6.10;;
3274;SDS011;1649;53.672;10.064;2023-01-31T08:27:55;17.43;;;7.20;;
3274;SDS011;1649;53.672;10.064;2023-01-31T08:30:21;32.80;;;7.40;;
3274;SDS011;1649;53.672;10.064;2023-01-31T08:32:46;19.37;;;6.90;;
3274;SDS011;1649;53.672;10.064;2023-01-31T08:35:12;16.03;;;6.40;;
3274;SDS011;1649;53.672;10.064;2023-01-31T08:37:37;24.77;;;7.20;;
3274;SDS011;1649;53.672;10.064;2023-01-31T08:40:03;21.30;;;6.10;;
3274;SDS011;1649;53.672;10.064;2023-01-31T08:42:29;21.93;;;7.30;;
3274;SDS011;1649;53.672;10.064;2023-01-31T08:44:54;24.10;;;7.20;;
3274;SDS011;1649;53.672;10.064;2023-01-31T08:47:20;21.20;;;7.17;;
3274;SDS011;1649;53.672;10.064;2023-01-31T08:49:45;18.43;;;7.27;;
3274;SDS011;1649;53.672;10.064;2023-01-31T08:52:11;20.60;;;7.20;;
3274;SDS011;1649;53.672;10.064;2023-01-31T08:54:36;24.30;;;7.53;;
3274;SDS011;1649;53.672;10.064;2023-01-31T08:57:02;19.53;;;7.00;;
3274;SDS011;1649;53.672;10.064;2023-01-31T08:59:27;22.60;;;8.17;;
3274;SDS011;1649;53.672;10.064;2023-01-31T09:01:53;27.50;;;7.07;;
3274;SDS011;1649;53.672;10.064;2023-01-31T09:04:18;17.30;;;6.60;;
3274;SDS011;1649;53.672;10.064;2023-01-31T09:06:44;20.00;;;6.43;;
3274;SDS011;1649;53.672;10.064;2023-01-31T09:09:09;22.60;;;7.30;;
3274;SDS011;1649;53.672;10.064;2023-01-31T09:11:35;22.93;;;8.10;;
3274;SDS011;1649;53.672;10.064;2023-01-31T09:14:01;23.20;;;7.17;;
3274;SDS011;1649;53.672;10.064;2023-01-31T09:16:26;36.37;;;7.90;;
3274;SDS011;1649;53.672;10.064;2023-01-31T09:18:53;21.83;;;8.30;;
3274;SDS011;1649;53.672;10.064;2023-01-31T09:21:20;23.60;;;7.27;;
3274;SDS011;1649;53.672;10.064;2023-01-31T09:23:47;23.37;;;8.00;;
3274;SDS011;1649;53.672;10.064;2023-01-31T09:26:18;23.70;;;7.80;;
3274;SDS011;1649;53.672;10.064;2023-01-31T09:28:43;22.77;;;8.20;;
3274;SDS011;1649;53.672;10.064;2023-01-31T09:31:14;16.37;;;7.30;;
3274;SDS011;1649;53.672;10.064;2023-01-31T09:33:40;21.73;;;8.83;;
3274;SDS011;1649;53.672;10.064;2023-01-31T09:36:13;28.77;;;9.63;;
3274;SDS011;1649;53.672;10.064;2023-01-31T09:38:41;20.00;;;7.50;;
3274;SDS011;1649;53.672;10.064;2023-01-31T09:44:06;24.33;;;7.80;;
3274;SDS011;1649;53.672;10.064;2023-01-31T09:46:39;19.57;;;8.87;;
3274;SDS011;1649;53.672;10.064;2023-01-31T09:49:17;21.43;;;7.87;;
3274;SDS011;1649;53.672;10.064;2023-01-31T09:51:48;26.53;;;10.30;;
3274;SDS011;1649;53.672;10.064;2023-01-31T09:54:21;17.90;;;9.30;;
3274;SDS011;1649;53.672;10.064;2023-01-31T09:57:00;30.20;;;9.37;;
3274;SDS011;1649;53.672;10.064;2023-01-31T10:05:46;17.90;;;8.70;;
3274;SDS011;1649;53.672;10.064;2023-01-31T10:08:27;21.10;;;9.60;;
3274;SDS011;1649;53.672;10.064;2023-01-31T10:11:08;22.50;;;9.23;;
3274;SDS011;1649;53.672;10.064;2023-01-31T10:13:44;23.30;;;9.03;;
3274;SDS011;1649;53.672;10.064;2023-01-31T10:16:17;21.70;;;9.63;;
3274;SDS011;1649;53.672;10.064;2023-01-31T10:18:53;17.03;;;9.03;;
3274;SDS011;1649;53.672;10.064;2023-01-31T10:21:24;17.80;;;9.20;;
3274;SDS011;1649;53.672;10.064;2023-01-31T10:24:01;18.63;;;8.13;;
3274;SDS011;1649;53.672;10.064;2023-01-31T10:26:30;22.47;;;8.90;;
3274;SDS011;1649;53.672;10.064;2023-01-31T10:29:07;16.83;;;8.63;;
3274;SDS011;1649;53.672;10.064;2023-01-31T10:31:52;15.73;;;6.47;;
3274;SDS011;1649;53.672;10.064;2023-01-31T10:34:27;22.33;;;9.23;;
3274;SDS011;1649;53.672;10.064;2023-01-31T10:37:58;16.17;;;7.40;;
3274;SDS011;1649;53.672;10.064;2023-01-31T10:40:18;17.40;;;7.77;;
3274;SDS011;1649;53.672;10.064;2023-01-31T10:42:52;21.43;;;8.50;;
3274;SDS011;1649;53.672;10.064;2023-01-31T10:45:26;14.33;;;7.90;;
3274;SDS011;1649;53.672;10.064;2023-01-31T10:48:16;20.10;;;8.27;;
3274;SDS011;1649;53.672;10.064;2023-01-31T10:56:50;14.93;;;8.00;;
3274;SDS011;1649;53.672;10.064;2023-01-31T10:59:20;12.63;;;7.47;;
3274;SDS011;1649;53.672;10.064;2023-01-31T11:01:49;15.03;;;8.40;;
3274;SDS011;1649;53.672;10.064;2023-01-31T11:04:26;23.17;;;8.30;;
3274;SDS011;1649;53.672;10.064;2023-01-31T11:06:56;15.17;;;7.63;;
3274;SDS011;1649;53.672;10.064;2023-01-31T11:09:23;17.93;;;8.20;;
3274;SDS011;1649;53.672;10.064;2023-01-31T11:11:54;14.63;;;7.57;;
3274;SDS011;1649;53.672;10.064;2023-01-31T11:14:22;20.40;;;9.40;;
3274;SDS011;1649;53.672;10.064;2023-01-31T11:16:47;18.30;;;8.70;;
3274;SDS011;1649;53.672;10.064;2023-01-31T11:21:53;15.80;;;8.63;;
3274;SDS011;1649;53.672;10.064;2023-01-31T11:24:20;16.53;;;8.40;;
3274;SDS011;1649;53.672;10.064;2023-01-31T11:26:52;14.67;;;8.03;;
3274;SDS011;1649;53.672;10.064;2023-01-31T11:29:33;18.10;;;6.90;;
3274;SDS011;1649;53.672;10.064;2023-01-31T11:32:03;24.57;;;8.50;;
3274;SDS011;1649;53.672;10.064;2023-01-31T11:34:30;21.77;;;8.80;;
3274;SDS011;1649;53.672;10.064;2023-01-31T11:37:16;13.27;;;7.30;;
3274;SDS011;1649;53.672;10.064;2023-01-31T11:39:53;12.67;;;6.63;;
3274;SDS011;1649;53.672;10.064;2023-01-31T11:42:20;14.70;;;7.80;;
3274;SDS011;1649;53.672;10.064;2023-01-31T11:44:58;14.80;;;7.60;;
3274;SDS011;1649;53.672;10.064;2023-01-31T11:49:57;19.27;;;6.87;;
3274;SDS011;1649;53.672;10.064;2023-01-31T11:52:28;19.83;;;7.50;;
3274;SDS011;1649;53.672;10.064;2023-01-31T11:54:57;16.17;;;6.50;;
3274;SDS011;1649;53.672;10.064;2023-01-31T11:57:39;14.77;;;6.37;;
3274;SDS011;1649;53.672;10.064;2023-01-31T12:00:06;14.27;;;6.30;;
3274;SDS011;1649;53.672;10.064;2023-01-31T12:02:45;13.93;;;5.43;;
3274;SDS011;1649;53.672;10.064;2023-01-31T12:05:17;11.00;;;4.87;;
3274;SDS011;1649;53.672;10.064;2023-01-31T12:07:45;12.57;;;4.97;;
3274;SDS011;1649;53.672;10.064;2023-01-31T12:13:13;12.33;;;4.07;;
3274;SDS011;1649;53.672;10.064;2023-01-31T12:15:54;11.97;;;5.03;;
3274;SDS011;1649;53.672;10.064;2023-01-31T12:24:08;9.67;;;3.87;;
3274;SDS011;1649;53.672;10.064;2023-01-31T12:26:53;6.77;;;3.13;;
3274;SDS011;1649;53.672;10.064;2023-01-31T12:38:08;6.03;;;2.80;;
3274;SDS011;1649;53.672;10.064;2023-01-31T12:43:55;5.90;;;2.23;;
3274;SDS011;1649;53.672;10.064;2023-01-31T12:46:34;6.80;;;3.10;;
3274;SDS011;1649;53.672;10.064;2023-01-31T13:03:47;5.33;;;2.63;;
3274;SDS011;1649;53.672;10.064;2023-01-31T13:06:53;5.53;;;2.70;;
3274;SDS011;1649;53.672;10.064;2023-01-31T13:09:19;7.43;;;3.37;;
3274;SDS011;1649;53.672;10.064;2023-01-31T13:12:02;5.73;;;2.70;;
3274;SDS011;1649;53.672;10.064;2023-01-31T13:14:35;8.20;;;3.43;;
3274;SDS011;1649;53.672;10.064;2023-01-31T13:17:04;6.70;;;3.00;;
3274;SDS011;1649;53.672;10.064;2023-01-31T13:19:36;6.60;;;2.77;;
3274;SDS011;1649;53.672;10.064;2023-01-31T13:22:18;6.83;;;3.40;;
3274;SDS011;1649;53.672;10.064;2023-01-31T13:24:49;9.87;;;3.90;;
3274;SDS011;1649;53.672;10.064;2023-01-31T13:27:29;8.40;;;3.10;;
3274;SDS011;1649;53.672;10.064;2023-01-31T13:29:59;9.77;;;4.50;;
3274;SDS011;1649;53.672;10.064;2023-01-31T13:32:47;8.80;;;3.90;;
3274;SDS011;1649;53.672;10.064;2023-01-31T13:38:04;16.97;;;4.97;;
3274;SDS011;1649;53.672;10.064;2023-01-31T13:41:11;13.27;;;4.80;;
3274;SDS011;1649;53.672;10.064;2023-01-31T13:43:30;11.50;;;4.50;;
3274;SDS011;1649;53.672;10.064;2023-01-31T13:45:57;14.43;;;4.90;;
3274;SDS011;1649;53.672;10.064;2023-01-31T13:48:33;18.40;;;5.77;;
3274;SDS011;1649;53.672;10.064;2023-01-31T13:51:13;21.47;;;4.90;;
3274;SDS011;1649;53.672;10.064;2023-01-31T13:54:10;15.20;;;4.40;;
3274;SDS011;1649;53.672;10.064;2023-01-31T13:56:40;17.97;;;5.27;;
3274;SDS011;1649;53.672;10.064;2023-01-31T13:59:07;14.20;;;4.60;;
3274;SDS011;1649;53.672;10.064;2023-01-31T14:01:35;20.47;;;5.77;;
3274;SDS011;1649;53.672;10.064;2023-01-31T14:22:37;12.63;;;5.30;;
3274;SDS011;1649;53.672;10.064;2023-01-31T14:27:59;21.70;;;6.90;;
3274;SDS011;1649;53.672;10.064;2023-01-31T14:30:38;10.80;;;5.70;;
3274;SDS011;1649;53.672;10.064;2023-01-31T14:35:49;20.50;;;5.87;;
3274;SDS011;1649;53.672;10.064;2023-01-31T14:38:40;18.53;;;5.80;;
3274;SDS011;1649;53.672;10.064;2023-01-31T14:57:58;9.90;;;3.63;;
3274;SDS011;1649;53.672;10.064;2023-01-31T15:00:27;12.37;;;4.50;;
3274;SDS011;1649;53.672;10.064;2023-01-31T15:02:59;14.33;;;3.47;;
3274;SDS011;1649;53.672;10.064;2023-01-31T15:10:59;8.80;;;3.73;;
3274;SDS011;1649;53.672;10.064;2023-01-31T15:16:13;12.50;;;4.30;;
3274;SDS011;1649;53.672;10.064;2023-01-31T15:18:44;14.50;;;5.13;;
3274;SDS011;1649;53.672;10.064;2023-01-31T15:21:15;17.17;;;4.33;;
3274;SDS011;1649;53.672;10.064;2023-01-31T15:23:46;24.90;;;6.17;;
3274;SDS011;1649;53.672;10.064;2023-01-31T15:26:14;26.50;;;5.70;;
3274;SDS011;1649;53.672;10.064;2023-01-31T15:28:42;20.00;;;5.30;;
3274;SDS011;1649;53.672;10.064;2023-01-31T15:31:13;25.03;;;5.10;;
3274;SDS011;1649;53.672;10.064;2023-01-31T15:33:44;22.23;;;4.50;;
3274;SDS011;1649;53.672;10.064;2023-01-31T15:38:55;21.63;;;5.70;;
3274;SDS011;1649;53.672;10.064;2023-01-31T15:41:34;30.03;;;5.50;;
3274;SDS011;1649;53.672;10.064;2023-01-31T15:44:35;31.87;;;6.20;;
3274;SDS011;1649;53.672;10.064;2023-01-31T15:46:54;21.73;;;5.43;;
3274;SDS011;1649;53.672;10.064;2023-01-31T15:57:17;18.43;;;4.30;;
3274;SDS011;1649;53.672;10.064;2023-01-31T15:59:45;21.07;;;4.57;;
3274;SDS011;1649;53.672;10.064;2023-01-31T16:02:20;25.30;;;5.87;;
3274;SDS011;1649;53.672;10.064;2023-01-31T16:04:50;22.20;;;4.80;;
3274;SDS011;1649;53.672;10.064;2023-01-31T16:07:16;29.00;;;6.40;;
3274;SDS011;1649;53.672;10.064;2023-01-31T16:09:43;28.13;;;5.17;;
3274;SDS011;1649;53.672;10.064;2023-01-31T16:12:10;24.73;;;4.40;;
3274;SDS011;1649;53.672;10.064;2023-01-31T16:14:37;18.17;;;3.10;;
3274;SDS011;1649;53.672;10.064;2023-01-31T16:17:04;12.10;;;2.17;;
3274;SDS011;1649;53.672;10.064;2023-01-31T16:19:31;15.87;;;2.23;;
3274;SDS011;1649;53.672;10.064;2023-01-31T16:21:59;6.83;;;1.70;;
3274;SDS011;1649;53.672;10.064;2023-01-31T16:24:25;8.80;;;1.83;;
3274;SDS011;1649;53.672;10.064;2023-01-31T16:26:59;6.50;;;1.60;;
3274;SDS011;1649;53.672;10.064;2023-01-31T16:29:36;5.33;;;1.77;;
3274;SDS011;1649;53.672;10.064;2023-01-31T16:32:12;8.27;;;1.60;;
3274;SDS011;1649;53.672;10.064;2023-01-31T16:37:39;13.40;;;2.20;;
3274;SDS011;1649;53.672;10.064;2023-01-31T16:40:18;7.47;;;2.10;;
3274;SDS011;1649;53.672;10.064;2023-01-31T16:42:45;14.80;;;2.13;;
3274;SDS011;1649;53.672;10.064;2023-01-31T16:45:25;10.03;;;2.03;;
3274;SDS011;1649;53.672;10.064;2023-01-31T16:47:53;11.13;;;3.00;;
3274;SDS011;1649;53.672;10.064;2023-01-31T16:52:49;12.40;;;2.70;;
3274;SDS011;1649;53.672;10.064;2023-01-31T16:55:20;10.70;;;3.00;;
3274;SDS011;1649;53.672;10.064;2023-01-31T16:57:48;6.70;;;2.60;;
3274;SDS011;1649;53.672;10.064;2023-01-31T17:02:48;13.80;;;2.67;;
3274;SDS011;1649;53.672;10.064;2023-01-31T17:07:45;22.33;;;4.40;;
3274;SDS011;1649;53.672;10.064;2023-01-31T17:10:22;18.07;;;4.53;;
3274;SDS011;1649;53.672;10.064;2023-01-31T17:12:51;20.37;;;3.47;;
3274;SDS011;1649;53.672;10.064;2023-01-31T17:15:39;18.47;;;3.97;;
3274;SDS011;1649;53.672;10.064;2023-01-31T17:18:05;22.37;;;4.40;;
3274;SDS011;1649;53.672;10.064;2023-01-31T17:20:31;17.80;;;3.43;;
3274;SDS011;1649;53.672;10.064;2023-01-31T17:22:57;40.00;;;4.80;;
3274;SDS011;1649;53.672;10.064;2023-01-31T17:25:23;29.70;;;4.90;;
3274;SDS011;1649;53.672;10.064;2023-01-31T17:27:51;29.47;;;5.10;;
3274;SDS011;1649;53.672;10.064;2023-01-31T17:30:18;14.40;;;2.97;;
3274;SDS011;1649;53.672;10.064;2023-01-31T17:32:44;20.77;;;3.70;;
3274;SDS011;1649;53.672;10.064;2023-01-31T17:35:14;20.43;;;4.10;;
3274;SDS011;1649;53.672;10.064;2023-01-31T17:37:47;23.33;;;4.00;;
3274;SDS011;1649;53.672;10.064;2023-01-31T17:40:13;23.53;;;3.33;;
3274;SDS011;1649;53.672;10.064;2023-01-31T17:42:38;26.27;;;5.13;;
3274;SDS011;1649;53.672;10.064;2023-01-31T17:45:04;16.10;;;3.80;;